SBGR/GRU METAR and TAF weather

Enter ICAO airport designator
Station Type Date Time Source
SBGR METAR 2018/12/10 12:00 UTC NOAA

SBGR 101200Z 06006KT CAVOK 22/16 Q1025


Station Type Date Time Source
SBGR Decoded METAR 2018/12/10 12:00 UTC NOAA

Guarulhos Civ / Mil , Brazil (SBGR) 23-26S 046-28W
Dec 10, 2018 - 07:00 AM EST / 2018.12.10 1200 UTC
Wind: from the ENE (060 degrees) at 7 MPH (6 KT):0
Visibility: greater than 7 mile(s):0
Temperature: 71 F (22 C)
Dew Point: 60 F (16 C)
Relative Humidity: 68%
Pressure (altimeter): 30.27 in. Hg (1025 hPa)
ob: SBGR 101200Z 06006KT CAVOK 22/16 Q1025
cycle: 12

Station Type Date Time Source
SBGR TAF 2018/12/10 12:21 UTC NOAA

TAF TAF SBGR 100724Z 1012/1118 06008KT CAVOK TN14/1108Z TX31/1117Z
BECMG 1013/1015 31005KT
BECMG 1017/1019 14007KT
BECMG 1021/1023 11005KT
BECMG 1101/1103 07007KT PROB30 1108/1111 3000 BR BKN004
BECMG 1111/1113 31010KT
RMK PGF


Example: see airport list